createdAt,value
2023-01-31T00:02:00.804Z,96926.09
2023-01-31T00:04:28.725Z,96925.03
2023-01-31T00:06:56.462Z,96925.03
2023-01-31T00:09:24.290Z,96927.25
2023-01-31T00:11:53.928Z,96933.63
2023-01-31T00:14:22.211Z,96930.38
2023-01-31T00:16:50.028Z,96924.00
2023-01-31T00:19:17.816Z,96928.56
2023-01-31T00:21:46.732Z,96925.88
2023-01-31T00:24:15.240Z,96934.69
2023-01-31T00:26:43.629Z,96929.34
2023-01-31T00:29:12.928Z,96929.56
2023-01-31T00:31:41.155Z,96929.34
2023-01-31T00:34:09.372Z,96926.34
2023-01-31T00:36:37.951Z,96929.03
2023-01-31T00:39:08.090Z,96928.22
2023-01-31T00:41:38.469Z,96933.22
2023-01-31T00:44:07.608Z,96927.91
2023-01-31T00:46:37.575Z,96924.41
2023-01-31T00:49:05.824Z,96939.63
2023-01-31T00:51:36.637Z,96938.81
2023-01-31T00:54:04.642Z,96926.03
2023-01-31T00:56:33.197Z,96930.56
2023-01-31T00:59:01.071Z,96925.22
2023-01-31T01:01:31.311Z,96929.50
2023-01-31T01:04:00.531Z,96938.03
2023-01-31T01:06:34.591Z,96937.44
2023-01-31T01:09:02.453Z,96945.78
2023-01-31T01:11:32.583Z,96944.09
2023-01-31T01:14:01.605Z,96940.69
2023-01-31T01:16:33.875Z,96939.03
2023-01-31T01:19:06.738Z,96948.44
2023-01-31T01:21:38.989Z,96938.81
2023-01-31T01:24:08.486Z,96939.31
2023-01-31T01:26:38.716Z,96945.94
2023-01-31T01:29:07.409Z,96947.78
2023-01-31T01:31:35.840Z,96942.94
2023-01-31T01:34:07.937Z,96940.13
2023-01-31T01:36:37.545Z,96939.88
2023-01-31T01:39:08.733Z,96945.94
2023-01-31T01:41:38.045Z,96939.47
2023-01-31T01:44:26.513Z,96940.53
2023-01-31T01:46:57.154Z,96938.31
2023-01-31T01:49:32.343Z,96933.50
2023-01-31T01:52:03.479Z,96930.00
2023-01-31T01:54:40.486Z,96936.88
2023-01-31T01:57:09.475Z,96933.31
2023-01-31T01:59:43.523Z,96937.03
2023-01-31T02:02:16.234Z,96934.09
2023-01-31T02:04:51.047Z,96940.75
2023-01-31T02:07:19.018Z,96950.34
2023-01-31T02:09:55.629Z,96944.94
2023-01-31T02:12:27.261Z,96941.22
2023-01-31T02:14:56.546Z,96949.13
2023-01-31T02:17:26.780Z,96952.38
2023-01-31T02:20:08.927Z,96952.84
2023-01-31T02:22:41.521Z,96963.97
2023-01-31T02:25:44.008Z,96959.38
2023-01-31T02:28:48.715Z,96960.75
2023-01-31T02:31:46.702Z,96972.69
2023-01-31T02:34:24.798Z,96964.84
2023-01-31T02:37:06.764Z,96961.59
2023-01-31T02:39:42.810Z,96964.44
2023-01-31T02:42:24.386Z,96962.81
2023-01-31T02:44:59.237Z,96960.16
2023-01-31T02:47:34.561Z,96969.41
2023-01-31T02:50:07.969Z,96970.13
2023-01-31T02:52:44.028Z,96985.31
2023-01-31T02:55:36.565Z,96982.78
2023-01-31T02:58:08.516Z,96985.47
2023-01-31T03:00:40.051Z,96985.69
2023-01-31T03:03:12.272Z,96984.06
2023-01-31T03:05:42.788Z,96981.19
2023-01-31T03:08:16.411Z,96978.97
2023-01-31T03:11:00.229Z,96979.44
2023-01-31T03:13:44.282Z,96982.09
2023-01-31T03:16:39.181Z,96977.03
2023-01-31T03:19:14.578Z,96981.31
2023-01-31T03:21:47.749Z,96976.69
2023-01-31T03:24:18.516Z,96980.88
2023-01-31T03:26:47.661Z,96982.97
2023-01-31T03:29:17.779Z,96996.50
2023-01-31T03:31:50.406Z,96995.69
2023-01-31T03:34:19.286Z,96992.72
2023-01-31T03:36:56.763Z,97001.25
2023-01-31T03:39:54.441Z,97001.16
2023-01-31T03:42:27.191Z,97009.59
2023-01-31T03:45:01.571Z,97008.00
2023-01-31T03:47:34.447Z,97009.50
2023-01-31T03:50:08.666Z,97011.34
2023-01-31T03:52:42.060Z,97017.13
2023-01-31T03:55:17.012Z,97023.50
2023-01-31T03:57:49.545Z,97023.66
2023-01-31T04:00:19.865Z,97022.50
2023-01-31T04:03:02.856Z,97034.63
2023-01-31T04:05:32.551Z,97034.28
2023-01-31T04:08:03.641Z,97038.91
2023-01-31T04:10:34.343Z,97040.41
2023-01-31T04:13:02.614Z,97054.53
2023-01-31T04:15:30.608Z,97046.78
2023-01-31T04:17:58.466Z,97044.94
2023-01-31T04:20:26.363Z,97053.72
2023-01-31T04:22:54.212Z,97063.91
2023-01-31T04:25:24.197Z,97073.53
2023-01-31T04:27:52.072Z,97085.22
2023-01-31T04:30:20.004Z,97076.19
2023-01-31T04:32:49.342Z,97082.31
2023-01-31T04:35:18.109Z,97074.69
2023-01-31T04:37:46.145Z,97081.63
2023-01-31T04:40:14.964Z,97080.81
2023-01-31T04:42:44.388Z,97078.25
2023-01-31T04:45:12.843Z,97085.44
2023-01-31T04:47:41.776Z,97075.16
2023-01-31T04:50:10.946Z,97081.28
2023-01-31T04:52:38.742Z,97082.31
2023-01-31T04:55:08.128Z,97085.09
2023-01-31T04:57:36.335Z,97090.88
2023-01-31T05:00:12.368Z,97093.53
2023-01-31T05:02:41.991Z,97089.38
2023-01-31T05:05:12.679Z,97085.47
2023-01-31T05:07:40.715Z,97094.38
2023-01-31T05:10:09.858Z,97084.97
2023-01-31T05:12:37.703Z,97089.50
2023-01-31T05:15:13.266Z,97087.41
2023-01-31T05:17:42.232Z,97086.25
2023-01-31T05:20:19.425Z,97086.25
2023-01-31T05:22:48.365Z,97093.78
2023-01-31T05:25:16.560Z,97096.91
2023-01-31T05:27:44.921Z,97105.72
2023-01-31T05:30:14.965Z,97107.56
2023-01-31T05:32:46.015Z,97105.00
2023-01-31T05:35:19.209Z,97099.09
2023-01-31T05:37:47.174Z,97108.25
2023-01-31T05:40:19.732Z,97101.31
2023-01-31T05:42:54.982Z,97112.56
2023-01-31T05:45:24.795Z,97117.03
2023-01-31T05:47:52.635Z,97112.31
2023-01-31T05:50:21.413Z,97105.13
2023-01-31T05:52:53.516Z,97100.38
2023-01-31T05:55:22.308Z,97097.59
2023-01-31T05:57:57.463Z,97097.38
2023-01-31T06:00:26.812Z,97104.88
2023-01-31T06:02:58.515Z,97095.03
2023-01-31T06:05:26.578Z,97085.69
2023-01-31T06:07:54.422Z,97082.31
2023-01-31T06:10:22.520Z,97093.22
2023-01-31T06:12:50.513Z,97086.84
2023-01-31T06:15:19.201Z,97088.69
2023-01-31T06:17:48.544Z,97083.38
2023-01-31T06:20:17.147Z,97086.03
2023-01-31T06:22:45.032Z,97089.25
2023-01-31T06:25:12.923Z,97086.84
2023-01-31T06:27:40.753Z,97091.34
2023-01-31T06:30:12.027Z,97104.06
2023-01-31T06:32:39.830Z,97103.63
2023-01-31T06:35:09.485Z,97096.69
2023-01-31T06:37:37.238Z,97112.41
2023-01-31T06:40:05.607Z,97119.59
2023-01-31T06:42:33.383Z,97120.66
2023-01-31T06:45:01.153Z,97123.31
2023-01-31T06:47:28.910Z,97113.69
2023-01-31T06:49:56.966Z,97123.06
2023-01-31T06:52:30.651Z,97117.41
2023-01-31T06:54:58.668Z,97121.47
2023-01-31T06:57:26.482Z,97117.19
2023-01-31T06:59:54.279Z,97124.34
2023-01-31T07:02:23.492Z,97131.31
2023-01-31T07:04:52.991Z,97132.69
2023-01-31T07:07:22.293Z,97132.69
2023-01-31T07:09:53.856Z,97128.16
2023-01-31T07:12:21.629Z,97135.00
2023-01-31T07:14:49.491Z,97126.78
2023-01-31T07:17:17.886Z,97126.53
2023-01-31T07:19:46.059Z,97131.88
2023-01-31T07:22:13.876Z,97125.97
2023-01-31T07:24:42.067Z,97134.44
2023-01-31T07:27:13.982Z,97139.50
2023-01-31T07:29:41.808Z,97126.44
2023-01-31T07:32:09.606Z,97143.91
2023-01-31T07:34:37.509Z,97143.91
2023-01-31T07:37:05.753Z,97142.31
2023-01-31T07:39:33.691Z,97134.88
2023-01-31T07:42:01.586Z,97132.81
2023-01-31T07:44:30.989Z,97129.44
2023-01-31T07:47:02.373Z,97138.25
2023-01-31T07:49:33.423Z,97128.16
2023-01-31T07:52:02.928Z,97127.16
2023-01-31T07:54:30.800Z,97128.88
2023-01-31T07:56:58.639Z,97133.75
2023-01-31T07:59:40.433Z,97117.50
2023-01-31T08:02:30.769Z,97123.75
2023-01-31T08:04:59.658Z,97116.31
2023-01-31T08:07:30.693Z,97123.06
2023-01-31T08:09:58.562Z,97115.97
2023-01-31T08:12:26.356Z,97108.78
2023-01-31T08:14:58.757Z,97110.75
2023-01-31T08:17:26.727Z,97117.25
2023-01-31T08:19:54.603Z,97120.00
2023-01-31T08:22:22.393Z,97129.84
2023-01-31T08:24:51.160Z,97126.50
2023-01-31T08:27:19.393Z,97134.50
2023-01-31T08:29:50.422Z,97132.97
2023-01-31T08:32:19.753Z,97135.09
2023-01-31T08:34:47.534Z,97128.94
2023-01-31T08:37:17.309Z,97133.31
2023-01-31T08:39:48.649Z,97133.53
2023-01-31T08:42:16.438Z,97130.00
2023-01-31T08:44:44.168Z,97133.44
2023-01-31T08:47:11.891Z,97134.69
2023-01-31T08:49:41.711Z,97132.56
2023-01-31T08:52:09.510Z,97128.88
2023-01-31T08:54:37.264Z,97136.00
2023-01-31T08:57:05.068Z,97134.81
2023-01-31T08:59:33.204Z,97148.50
2023-01-31T09:02:01.040Z,97153.50
2023-01-31T09:04:31.432Z,97145.41
2023-01-31T09:07:00.570Z,97152.50
2023-01-31T09:09:29.928Z,97149.59
2023-01-31T09:11:59.342Z,97153.78
2023-01-31T09:14:27.849Z,97148.78
2023-01-31T09:16:55.756Z,97151.78
2023-01-31T09:19:23.684Z,97151.22
2023-01-31T09:21:51.485Z,97149.44
2023-01-31T09:24:20.593Z,97157.22
2023-01-31T09:26:48.630Z,97153.84
2023-01-31T09:29:17.873Z,97153.19
2023-01-31T09:31:45.713Z,97160.16
2023-01-31T09:34:13.925Z,97154.63
2023-01-31T09:36:41.715Z,97152.56
2023-01-31T09:39:13.124Z,97151.31
2023-01-31T09:41:45.756Z,97144.44
2023-01-31T09:44:18.514Z,97140.56
2023-01-31T09:46:56.332Z,97143.16
2023-01-31T09:49:28.483Z,97152.59
2023-01-31T09:52:00.253Z,97158.06
2023-01-31T09:54:33.092Z,97156.50
2023-01-31T09:57:12.055Z,97154.25
2023-01-31T09:59:49.518Z,97167.91
2023-01-31T10:03:00.349Z,97162.66
2023-01-31T10:05:40.792Z,97148.56
2023-01-31T10:08:19.049Z,97151.56
2023-01-31T10:10:52.881Z,97152.69
2023-01-31T10:13:29.609Z,97136.50
2023-01-31T10:16:01.784Z,97142.44
2023-01-31T10:18:33.129Z,97141.31
2023-01-31T10:21:09.824Z,97147.81
2023-01-31T10:23:42.507Z,97123.81
2023-01-31T10:26:14.996Z,97129.34
2023-01-31T10:28:51.327Z,97119.59
2023-01-31T10:31:32.083Z,97121.25
2023-01-31T10:34:06.620Z,97105.00
2023-01-31T10:36:37.678Z,97105.06
2023-01-31T10:39:08.179Z,97104.03
2023-01-31T10:41:45.131Z,97109.72
2023-01-31T10:44:23.968Z,97103.56
2023-01-31T10:46:55.081Z,97108.91
2023-01-31T10:49:25.325Z,97101.69
2023-01-31T10:52:04.624Z,97098.44
2023-01-31T10:54:48.894Z,97089.66
2023-01-31T10:57:21.181Z,97085.16
2023-01-31T10:59:51.219Z,97069.09
2023-01-31T11:02:23.503Z,97069.59
2023-01-31T11:04:54.447Z,97085.31
2023-01-31T11:07:22.949Z,97070.13
2023-01-31T11:09:54.418Z,97052.53
2023-01-31T11:12:23.082Z,97051.25
2023-01-31T11:15:09.154Z,97049.69
2023-01-31T11:17:40.116Z,97052.63
2023-01-31T11:20:20.263Z,97052.16
2023-01-31T11:22:48.361Z,97050.09
2023-01-31T11:25:21.098Z,97044.16
2023-01-31T11:27:50.208Z,97041.81
2023-01-31T11:30:30.271Z,97024.94
2023-01-31T11:32:58.732Z,97023.56
2023-01-31T11:35:29.849Z,97011.25
2023-01-31T11:37:59.447Z,96995.19
2023-01-31T11:40:32.992Z,96992.97
2023-01-31T11:43:02.752Z,96991.84
2023-01-31T11:45:34.213Z,96995.38
2023-01-31T11:48:11.989Z,96980.63
2023-01-31T11:50:42.751Z,96989.13
2023-01-31T11:53:19.861Z,96980.41
2023-01-31T11:55:51.145Z,96982.88
2023-01-31T11:58:22.121Z,97001.22
2023-01-31T12:00:58.484Z,96995.91
2023-01-31T12:03:27.575Z,96998.53
2023-01-31T12:06:02.052Z,96993.25
2023-01-31T12:08:31.981Z,96995.91
2023-01-31T12:11:00.414Z,96986.44
2023-01-31T12:13:29.129Z,96977.84
2023-01-31T12:16:01.532Z,96985.59
2023-01-31T12:19:02.945Z,96979.22
2023-01-31T12:21:44.205Z,96973.91
2023-01-31T12:24:26.913Z,96968.81
2023-01-31T12:26:57.883Z,96968.38
2023-01-31T12:29:51.599Z,96962.03
2023-01-31T12:32:39.036Z,96944.91
2023-01-31T12:35:27.344Z,96943.97
2023-01-31T12:38:07.364Z,96925.84
2023-01-31T12:40:41.309Z,96929.91
2023-01-31T12:43:24.436Z,96936.72
2023-01-31T12:46:09.593Z,96940.75
2023-01-31T12:49:11.206Z,96941.00
2023-01-31T12:51:47.043Z,96934.00
2023-01-31T12:54:39.633Z,96933.72
2023-01-31T12:57:23.418Z,96937.75
2023-01-31T13:00:02.957Z,96930.78
2023-01-31T13:02:42.172Z,96923.53
2023-01-31T13:05:22.694Z,96928.81
2023-01-31T13:07:56.160Z,96909.03
2023-01-31T13:10:36.223Z,96900.19
2023-01-31T13:13:05.861Z,96902.34
2023-01-31T13:15:44.007Z,96892.41
2023-01-31T13:18:14.421Z,96885.44
2023-01-31T13:20:46.646Z,96894.75
2023-01-31T13:23:20.844Z,96896.06
2023-01-31T13:25:55.739Z,96889.34
2023-01-31T13:28:27.311Z,96874.81
2023-01-31T13:30:58.882Z,96876.13
2023-01-31T13:33:35.381Z,96877.44
2023-01-31T13:36:28.569Z,96879.59
2023-01-31T13:38:57.463Z,96876.03
2023-01-31T13:41:29.071Z,96870.13
2023-01-31T13:43:57.932Z,96855.63
2023-01-31T13:46:30.744Z,96859.38
2023-01-31T13:49:02.397Z,96852.09
2023-01-31T13:51:38.482Z,96865.22
2023-01-31T13:54:17.790Z,96864.41
2023-01-31T13:56:51.855Z,96867.63
2023-01-31T13:59:23.109Z,96873.59
2023-01-31T14:01:53.040Z,96871.16
2023-01-31T14:04:27.668Z,96855.94
2023-01-31T14:07:12.455Z,96855.63
2023-01-31T14:09:46.397Z,96859.06
2023-01-31T14:12:34.004Z,96851.53
2023-01-31T14:15:03.485Z,96857.97
2023-01-31T14:18:01.140Z,96848.28
2023-01-31T14:20:32.076Z,96857.94
2023-01-31T14:23:46.979Z,96850.66
2023-01-31T14:26:36.432Z,96865.34
2023-01-31T14:29:17.490Z,96862.66
2023-01-31T14:31:47.230Z,96879.72
2023-01-31T14:34:18.561Z,96878.91
2023-01-31T14:36:58.116Z,96878.13
2023-01-31T14:39:58.465Z,96882.34
2023-01-31T14:42:58.982Z,96880.44
2023-01-31T14:45:37.546Z,96882.56
2023-01-31T14:48:19.745Z,96894.88
2023-01-31T14:51:10.448Z,96878.03
2023-01-31T14:54:18.913Z,96877.19
2023-01-31T14:57:03.240Z,96868.38
2023-01-31T14:59:35.725Z,96853.97
2023-01-31T15:23:21.322Z,96837.31
2023-01-31T15:25:50.362Z,96842.09
2023-01-31T15:28:21.356Z,96843.69
2023-01-31T15:30:56.047Z,96830.31
2023-01-31T15:33:30.140Z,96845.00
2023-01-31T15:36:04.053Z,96840.22
2023-01-31T15:38:39.910Z,96826.84
2023-01-31T15:41:20.120Z,96815.34
2023-01-31T15:43:48.605Z,96836.66
2023-01-31T15:46:23.394Z,96826.81
2023-01-31T15:48:51.494Z,96824.88
2023-01-31T15:51:20.486Z,96815.28
2023-01-31T15:54:03.514Z,96820.09
2023-01-31T16:00:07.441Z,96847.34
2023-01-31T16:02:37.804Z,96844.63
2023-01-31T16:05:06.831Z,96846.78
2023-01-31T16:07:35.673Z,96848.38
2023-01-31T16:10:05.623Z,96856.41
2023-01-31T16:12:37.358Z,96856.41
2023-01-31T16:15:09.031Z,96848.94
2023-01-31T16:17:36.926Z,96852.66
2023-01-31T16:20:05.548Z,96855.34
2023-01-31T16:22:33.361Z,96863.34
2023-01-31T16:25:03.579Z,96845.97
2023-01-31T16:27:37.019Z,96846.19
2023-01-31T16:30:06.434Z,96855.84
2023-01-31T16:32:38.498Z,96864.09
2023-01-31T16:35:10.149Z,96868.91
2023-01-31T16:37:39.813Z,96879.13
2023-01-31T16:40:24.684Z,96879.59
2023-01-31T16:43:10.689Z,96876.19
2023-01-31T16:45:50.912Z,96879.66
2023-01-31T16:48:25.879Z,96885.00
2023-01-31T16:50:54.919Z,96881.53
2023-01-31T16:53:29.023Z,96904.25
2023-01-31T16:56:23.118Z,96911.47
2023-01-31T16:58:56.165Z,96904.25
2023-01-31T17:01:27.637Z,96905.09
2023-01-31T17:04:27.850Z,96889.06
2023-01-31T17:07:04.098Z,96886.91
2023-01-31T17:09:32.300Z,96886.41
2023-01-31T17:12:00.225Z,96887.22
2023-01-31T17:14:29.889Z,96887.47
2023-01-31T17:16:57.763Z,96886.41
2023-01-31T17:19:25.553Z,96881.06
2023-01-31T17:21:53.429Z,96885.63
2023-01-31T17:24:23.315Z,96884.25
2023-01-31T17:26:53.689Z,96882.06
2023-01-31T17:29:21.852Z,96876.66
2023-01-31T17:31:51.159Z,96880.94
2023-01-31T17:34:19.278Z,96871.59
2023-01-31T17:36:47.101Z,96877.44
2023-01-31T17:39:14.965Z,96883.09
2023-01-31T17:41:42.785Z,96883.09
2023-01-31T17:44:15.015Z,96890.31
2023-01-31T17:46:44.036Z,96888.94
2023-01-31T17:49:13.335Z,96900.41
2023-01-31T17:51:41.369Z,96903.09
2023-01-31T17:54:34.412Z,96898.81
2023-01-31T17:57:36.528Z,96889.19
2023-01-31T18:00:26.112Z,96896.41
2023-01-31T18:02:54.908Z,96899.03
2023-01-31T18:05:38.284Z,96889.13
2023-01-31T18:08:06.980Z,96885.09
2023-01-31T18:11:03.256Z,96885.66
2023-01-31T18:13:31.339Z,96889.19
2023-01-31T18:16:07.717Z,96890.75
2023-01-31T18:18:36.534Z,96890.44
2023-01-31T18:21:09.180Z,96888.06
2023-01-31T18:23:36.971Z,96889.69
2023-01-31T18:26:07.745Z,96885.66
2023-01-31T18:28:36.410Z,96874.16
2023-01-31T18:31:04.948Z,96872.78
2023-01-31T18:33:33.458Z,96875.22
2023-01-31T18:36:02.054Z,96879.19
2023-01-31T18:38:31.556Z,96893.38
2023-01-31T18:41:00.128Z,96879.94
2023-01-31T18:43:30.675Z,96885.59
2023-01-31T18:45:58.493Z,96890.69
2023-01-31T18:48:26.368Z,96885.59
2023-01-31T18:50:54.156Z,96886.91
2023-01-31T18:53:21.960Z,96876.47
2023-01-31T18:55:59.849Z,96893.84
2023-01-31T18:58:57.233Z,96893.31
2023-01-31T19:01:29.675Z,96908.28
2023-01-31T19:04:14.135Z,96904.81
2023-01-31T19:06:42.300Z,96912.34
2023-01-31T19:09:11.212Z,96908.09
2023-01-31T19:11:41.669Z,96909.13
2023-01-31T19:14:13.225Z,96899.50
2023-01-31T19:16:42.844Z,96907.78
2023-01-31T19:19:11.591Z,96894.16
2023-01-31T19:21:39.879Z,96899.28
2023-01-31T19:24:10.615Z,96900.31
2023-01-31T19:26:39.903Z,96904.84
2023-01-31T19:29:09.818Z,96901.38
2023-01-31T19:31:38.175Z,96903.50
2023-01-31T19:34:07.285Z,96899.47
2023-01-31T19:36:37.026Z,96897.91
2023-01-31T19:39:07.554Z,96898.44
2023-01-31T19:41:35.535Z,96902.44
2023-01-31T19:44:05.458Z,96904.06
2023-01-31T19:46:36.807Z,96896.78
2023-01-31T19:49:05.171Z,96890.44
2023-01-31T19:51:33.634Z,96888.59
2023-01-31T19:54:02.827Z,96883.47
2023-01-31T19:56:31.851Z,96891.28
2023-01-31T19:59:00.506Z,96895.78
2023-01-31T20:01:29.858Z,96901.13
2023-01-31T20:03:57.698Z,96896.09
2023-01-31T20:06:27.840Z,96894.00
2023-01-31T20:08:57.034Z,96902.56
2023-01-31T20:11:25.983Z,96888.38
2023-01-31T20:13:55.202Z,96900.41
2023-01-31T20:16:26.162Z,96888.69
2023-01-31T20:18:56.175Z,96884.16
2023-01-31T20:21:24.330Z,96894.28
2023-01-31T20:23:52.291Z,96891.59
2023-01-31T20:26:22.311Z,96886.81
2023-01-31T20:28:50.272Z,96879.03
2023-01-31T20:31:18.481Z,96880.91
2023-01-31T20:33:56.858Z,96879.88
2023-01-31T20:36:24.722Z,96886.25
2023-01-31T20:38:53.087Z,96883.56
2023-01-31T20:41:21.834Z,96876.94
2023-01-31T20:43:50.637Z,96883.09
2023-01-31T20:46:19.888Z,96878.03
2023-01-31T20:48:47.719Z,96884.69
2023-01-31T20:51:16.957Z,96888.75
2023-01-31T20:53:44.843Z,96868.97
2023-01-31T20:56:12.620Z,96879.66
2023-01-31T20:58:42.037Z,96876.13
2023-01-31T21:01:15.132Z,96873.41
2023-01-31T21:03:42.981Z,96887.56
2023-01-31T21:06:11.287Z,96886.50
2023-01-31T21:08:41.172Z,96894.78
2023-01-31T21:11:10.814Z,96896.41
2023-01-31T21:13:39.715Z,96888.94
2023-01-31T21:16:09.228Z,96893.78
2023-01-31T21:18:39.960Z,96897.69
2023-01-31T21:21:09.341Z,96900.13
2023-01-31T21:23:38.930Z,96899.56
2023-01-31T21:26:11.091Z,96896.09
2023-01-31T21:28:40.776Z,96906.53
2023-01-31T21:31:12.476Z,96890.75
2023-01-31T21:33:40.764Z,96890.75
2023-01-31T21:36:09.667Z,96884.09
2023-01-31T21:38:37.745Z,96880.84
2023-01-31T21:41:23.250Z,96875.28
2023-01-31T21:43:56.438Z,96871.78
2023-01-31T21:46:24.676Z,96858.38
2023-01-31T21:48:55.588Z,96847.72
2023-01-31T21:51:26.100Z,96845.56
2023-01-31T21:53:54.772Z,96831.94
2023-01-31T21:56:25.362Z,96828.72
2023-01-31T21:58:55.944Z,96822.59
2023-01-31T22:01:25.497Z,96828.91
2023-01-31T22:03:55.409Z,96819.25
2023-01-31T22:06:27.190Z,96809.66
2023-01-31T22:08:58.003Z,96805.09
2023-01-31T22:11:26.643Z,96800.00
2023-01-31T22:13:56.384Z,96799.44
2023-01-31T22:16:24.356Z,96794.09
2023-01-31T22:18:53.920Z,96794.09
2023-01-31T22:21:24.117Z,96796.25
2023-01-31T22:23:53.601Z,96802.16
2023-01-31T22:26:23.918Z,96798.41
2023-01-31T22:28:53.241Z,96808.88
2023-01-31T22:31:22.791Z,96801.69
2023-01-31T22:33:51.303Z,96802.50
2023-01-31T22:36:19.655Z,96815.59
2023-01-31T22:38:47.513Z,96815.91
2023-01-31T22:41:19.910Z,96831.13
2023-01-31T22:43:49.754Z,96827.72
2023-01-31T22:46:19.840Z,96829.84
2023-01-31T22:48:49.879Z,96823.47
2023-01-31T22:51:19.709Z,96824.28
2023-01-31T22:53:48.142Z,96831.50
2023-01-31T22:56:18.651Z,96839.25
2023-01-31T22:58:46.565Z,96826.19
2023-01-31T23:01:16.164Z,96830.25
2023-01-31T23:03:44.169Z,96828.91
2023-01-31T23:06:14.868Z,96832.66
2023-01-31T23:08:43.519Z,96840.66
2023-01-31T23:11:14.121Z,96834.00
2023-01-31T23:13:43.088Z,96836.16
2023-01-31T23:16:15.851Z,96829.50
2023-01-31T23:18:43.709Z,96842.63
2023-01-31T23:21:14.551Z,96838.88
2023-01-31T23:23:42.803Z,96837.81
2023-01-31T23:26:11.379Z,96827.88
2023-01-31T23:28:39.345Z,96826.88
2023-01-31T23:31:07.344Z,96821.53
2023-01-31T23:33:35.363Z,96818.84
2023-01-31T23:36:03.267Z,96827.13
2023-01-31T23:38:32.478Z,96819.94
2023-01-31T23:41:00.382Z,96818.81
2023-01-31T23:43:28.123Z,96820.13
2023-01-31T23:45:55.932Z,96820.44
2023-01-31T23:48:23.754Z,96813.94
2023-01-31T23:50:51.570Z,96805.34
2023-01-31T23:53:19.631Z,96813.03
2023-01-31T23:55:48.788Z,96807.94
2023-01-31T23:58:16.580Z,96799.34
